Strona główna
Zdjęcia satelitarne 10-dni prognozyKlimatMeteorologia morska Cyklony Błyskawica LotniskoFAQ Gazetka O
Pogoda : Europa Afryka Ameryka Północna Ameryka Południowa Azja Australia-Oceania Inny
Języki Kontakt

Kraków, Polska

Port lotniczy Kraków-Balice

Szerokość geograficzna: 50-05N, Długość geograficzna: 019-48E, wysokość: 237 m


METAR: EPKK 020500Z 05003KT CAVOK 16/11 Q1025
TAF: EPKK 012330Z 0200/0224 06006KT CAVOK

czas: 07:18 (05:18 UTC)

Aktualna obserwacja pogody

Raport powstał 18 minut temu, godzina 05:00 UTC
Wiatr 3 kt od północny wschód
Temperatura 16°C
Wilgotność 72%
Ciśnienie 1025 hPa
Widzialność 10 km lub więcej
Brak chmur poniżej 1500 m i brak chmur cumulonimbus

Jednostka miary

Prognoza

Raport powstał 5 godziny i 48 minut temu, godzina 23:30 UTC
Prognoza ważna od 02 godzina 00 UTC do 02 godzina 24 UTC
Wiatr 6 kt od wschodnio-północny wschód
Widzialność 10 km lub więcej
Brak chmur poniżej 1500 m i brak chmur cumulonimbus
Informacje na tej stronie internetowej podlegają klauzuli o wyłączeniu odpowiedzialności
Pogoda : Europa Afryka Ameryka Północna Ameryka Południowa Azja Australia-Oceania Inny
Zdjęcia satelitarne 10-dni prognozyKlimatMeteorologia morska Cyklony Błyskawica LotniskoFAQ Języki Kontakt Gazetka O